Wetterdaten der Wetterstation 59969 Hallenberg

Letzte Wetterlage 20.12.2014 08:30
Wetterdiagramm
Tabellarische Darstellung
Datum Temperatur Windchill Feuchte Luftdruck Windrichtung Windstärke Niederschlag
20.12.2014 08:30 3,2 °C 3,2 °C 79 % 1015,4 hPa 0,00 mm
20.12.2014 08:09 3,3 °C 3,3 °C 79 % 1016,4 hPa 0,00 mm
20.12.2014 07:48 3,5 °C 3,5 °C 78 % 1016,4 hPa 0,00 mm
20.12.2014 07:27 3,7 °C 3,7 °C 79 % 1016,4 hPa 0,00 mm
20.12.2014 07:07 3,7 °C 3,7 °C 79 % 1016,4 hPa 0,00 mm
20.12.2014 06:46 3,7 °C 3,7 °C 79 % 1016,4 hPa 0,00 mm
20.12.2014 06:25 3,7 °C 3,7 °C 79 % 1016,4 hPa 0,00 mm
20.12.2014 06:04 3,7 °C 3,7 °C 79 % 1016,4 hPa 0,00 mm
20.12.2014 05:43 3,5 °C 3,5 °C 78 % 1016,4 hPa 0,00 mm
20.12.2014 05:23 3,5 °C 3,5 °C 79 % 1016,4 hPa 0,00 mm
20.12.2014 05:02 3,5 °C 3,5 °C 79 % 1016,4 hPa 0,00 mm
20.12.2014 04:22 3,8 °C 3,8 °C 79 % 1016,4 hPa 0,00 mm
20.12.2014 04:01 3,8 °C 3,8 °C 79 % 1016,4 hPa 0,00 mm
20.12.2014 03:41 3,8 °C 3,8 °C 79 % 1016,4 hPa 0,00 mm
20.12.2014 03:20 3,8 °C 3,8 °C 79 % 1016,4 hPa 0,00 mm
20.12.2014 03:00 3,8 °C 3,8 °C 79 % 1016,4 hPa 0,00 mm
20.12.2014 02:39 3,8 °C 3,8 °C 80 % 1016,4 hPa 0,00 mm
20.12.2014 02:18 3,8 °C 3,8 °C 79 % 1016,4 hPa 0,00 mm
20.12.2014 01:57 3,7 °C 3,7 °C 80 % 1016,4 hPa 0,00 mm
20.12.2014 01:37 3,9 °C 3,9 °C 79 % 1016,4 hPa 0,00 mm
20.12.2014 01:17 3,8 °C 3,8 °C 80 % 1016,4 hPa 0,00 mm
20.12.2014 00:56 3,9 °C 3,9 °C 80 % 1015,4 hPa 0,00 mm
20.12.2014 00:36 3,9 °C 3,9 °C 81 % 1015,4 hPa 0,00 mm
20.12.2014 00:15 4,0 °C 4,0 °C 80 % 1015,4 hPa 0,00 mm
Empfehlen Sie wetter.com
| Mehr
Neue Wetterwarnung

Neue Niederschlagsmeldung
Neue Meldung
Regen Liveticker
    sehr starker Regen/Gewitter
    starker Regen/Gewitter
    mäßiger bis starker Regen
    mäßiger Regen
    leichter bis mäßiger Regen
    kein Regen